Scotia — MXHR6 — position and weather

sailwx.info

Track history (hours):
 
Tides and Currents Weather Stations Pressure Air Temp Water Temp Dewpoint Dewpoint Depression Visibility Wind Speed Wind Dir Waves Ship Positions

Oceanographic research ship Scotia (UK)

Detailed information on ship capabilities available from University of Delaware's Ocean Information Center.

Last reported at 2018-Jun-18 14:10 UTC. Time now 2018-Jun-21 06:51 UTC.
Position N 55°46' W 006°01'.

Length 68.6 m; beam 15 m; draft 5.6 m.

Type: Other ship. MMSI: 234973000.

Date/timePositionNaut miles runAvg speedWind from/ knotsBaromVisibWave heightAir tempDewpointWater temp
2018-Jun-18 14:10N 55°46' W 006°01'2 8.0
2018-Jun-18 13:52N 55°43' W 005°60'410.2
2018-Jun-18 13:30N 55°40' W 005°59'1 1.4
2018-Jun-18 12:59N 55°39' W 005°58'1 2.5
2018-Jun-18 12:31N 55°38' W 005°57'2 4.3
2018-Jun-18 12:00N 55°36' W 005°56'1 1.5
2018-Jun-18 11:30N 55°35' W 005°55'1 2.7
2018-Jun-18 11:00N 55°35' W 005°53'0 0.8
2018-Jun-18 10:30N 55°35' W 005°53'3 6.6
2018-Jun-18 10:00N 55°34' W 005°59'0 0.8
2018-Jun-18 09:30N 55°33' W 005°58'510.3
2018-Jun-18 09:00N 55°28' W 005°56'510.3
2018-Jun-18 08:30N 55°23' W 005°54'510.4
2018-Jun-18 08:00N 55°18' W 005°51'32 1.8
2018-Jun-17 14:26N 55°39' W 005°06'0 0.8
2018-Jun-17 14:00N 55°39' W 005°06'1 1.6
2018-Jun-17 13:19N 55°40' W 005°05'2 2.5
2018-Jun-17 12:35N 55°40' W 005°02'1 6.9
2018-Jun-17 12:23N 55°41' W 005°00'0 0.7
2018-Jun-17 11:59N 55°41' W 005°00'4 8.8
2018-Jun-17 11:31N 55°44' W 005°07'3 3.9
2018-Jun-17 10:47N 55°45' W 005°11'2 3.0
2018-Jun-17 10:00N 55°47' W 005°12'1 1.3
2018-Jun-17 09:16N 55°47' W 005°14'1 1.4
2018-Jun-17 08:33N 55°46' W 005°15'0 4.7
2018-Jun-17 08:30N 55°46' W 005°15'5 4.8
2018-Jun-17 07:34N 55°44' W 005°23'40 1.9
2018-Jun-16 10:37N 55°04' W 005°21'110.4
2018-Jun-16 10:30N 55°04' W 005°22'5 9.4
2018-Jun-16 09:58N 54°59' W 005°26'5 9.9
2018-Jun-16 09:27N 54°54' W 005°29'410.0
2018-Jun-16 09:00N 54°50' W 005°32'5 9.3
2018-Jun-16 08:31N 54°46' W 005°36'510.3
2018-Jun-16 08:00N 54°42' W 005°41'510.5
2018-Jun-16 07:30N 54°40' W 005°50'0 0.0
2018-Jun-15 06:27N 54°40' W 005°50'4 8.9
2018-Jun-15 06:00N 54°42' W 005°44'2 4.3
2018-Jun-15 05:31N 54°43' W 005°41'2 4.4
2018-Jun-15 05:00N 54°45' W 005°40'3 6.8
2018-Jun-15 04:30N 54°49' W 005°39'5 8.8
2018-Jun-15 03:59N 54°53' W 005°40'19 7.4
2018-Jun-15 01:29N 55°10' W 005°55'4 8.2
2018-Jun-15 01:00N 55°13' W 005°58'4 8.6
2018-Jun-15 00:30N 55°17' W 006°02'4 8.8
2018-Jun-15 00:00N 55°21' W 006°05'4 7.3
2018-Jun-14 23:30N 55°25' W 006°03'4 7.5
2018-Jun-14 23:00N 55°28' W 006°01'4 7.6
2018-Jun-14 22:27N 55°32' W 005°59'4 8.0
2018-Jun-14 22:00N 55°36' W 005°56'510.3
2018-Jun-14 21:30N 55°40' W 005°53'0 0.7
2018-Jun-14 21:00N 55°40' W 005°52'0 0.6
2018-Jun-14 20:30N 55°40' W 005°53'1 1.1
2018-Jun-14 20:00N 55°40' W 005°52'2 3.1
2018-Jun-14 19:30N 55°41' W 005°49'1 1.5
2018-Jun-14 19:00N 55°42' W 005°50'0 0.6
2018-Jun-14 18:30N 55°42' W 005°49'2 3.9
2018-Jun-14 18:00N 55°43' W 005°52'0 0.4
2018-Jun-14 17:29N 55°43' W 005°51'1 2.3
2018-Jun-14 16:52N 55°44' W 005°53'2 6.2
2018-Jun-14 16:28N 55°45' W 005°49'4 8.3
2018-Jun-14 16:00N 55°48' W 005°45'2 1.4
2018-Jun-14 14:47N 55°49' W 005°48'310.3
2018-Jun-14 14:30N 55°48' W 005°52'0 0.5
2018-Jun-14 14:00N 55°47' W 005°52'2 3.9
2018-Jun-14 13:27N 55°47' W 005°55'  
2018-Jun-09 12:21N 58°37' W 003°32'0 0.2
2018-Jun-09 11:56N 58°37' W 003°32'5 7.1
2018-Jun-09 11:11N 58°41' W 003°25'212.8
2018-Jun-09 11:00N 58°41' W 003°21'714.8
2018-Jun-09 10:31N 58°43' W 003°07'714.6
2018-Jun-09 10:00N 58°42' W 002°53'611.7
2018-Jun-09 09:30N 58°41' W 002°42'  
Track history (hours):
 
Tides and Currents Weather Stations Pressure Air Temp Water Temp Dewpoint Dewpoint Depression Visibility Wind Speed Wind Dir Waves Ship Positions

Oceanographic research ship Scotia (UK)

Detailed information on ship capabilities available from University of Delaware's Ocean Information Center.

Last reported at 2018-Jun-18 14:10 UTC. Time now 2018-Jun-21 06:51 UTC.
Position N 55°46' W 006°01'.

Length 68.6 m; beam 15 m; draft 5.6 m.

Type: Other ship. MMSI: 234973000.

Date/timePositionNaut miles runAvg speedWind from/ knotsBaromVisibWave heightAir tempDewpointWater temp
2018-Jun-18 14:10N 55°46' W 006°01'2 8.0
2018-Jun-18 13:52N 55°43' W 005°60'410.2
2018-Jun-18 13:30N 55°40' W 005°59'1 1.4
2018-Jun-18 12:59N 55°39' W 005°58'1 2.5
2018-Jun-18 12:31N 55°38' W 005°57'2 4.3
2018-Jun-18 12:00N 55°36' W 005°56'1 1.5
2018-Jun-18 11:30N 55°35' W 005°55'1 2.7
2018-Jun-18 11:00N 55°35' W 005°53'0 0.8
2018-Jun-18 10:30N 55°35' W 005°53'3 6.6
2018-Jun-18 10:00N 55°34' W 005°59'0 0.8
2018-Jun-18 09:30N 55°33' W 005°58'510.3
2018-Jun-18 09:00N 55°28' W 005°56'510.3
2018-Jun-18 08:30N 55°23' W 005°54'510.4
2018-Jun-18 08:00N 55°18' W 005°51'32 1.8
2018-Jun-17 14:26N 55°39' W 005°06'0 0.8
2018-Jun-17 14:00N 55°39' W 005°06'1 1.6
2018-Jun-17 13:19N 55°40' W 005°05'2 2.5
2018-Jun-17 12:35N 55°40' W 005°02'1 6.9
2018-Jun-17 12:23N 55°41' W 005°00'0 0.7
2018-Jun-17 11:59N 55°41' W 005°00'4 8.8
2018-Jun-17 11:31N 55°44' W 005°07'3 3.9
2018-Jun-17 10:47N 55°45' W 005°11'2 3.0
2018-Jun-17 10:00N 55°47' W 005°12'1 1.3
2018-Jun-17 09:16N 55°47' W 005°14'1 1.4
2018-Jun-17 08:33N 55°46' W 005°15'0 4.7
2018-Jun-17 08:30N 55°46' W 005°15'5 4.8
2018-Jun-17 07:34N 55°44' W 005°23'40 1.9
2018-Jun-16 10:37N 55°04' W 005°21'110.4
2018-Jun-16 10:30N 55°04' W 005°22'5 9.4
2018-Jun-16 09:58N 54°59' W 005°26'5 9.9
2018-Jun-16 09:27N 54°54' W 005°29'410.0
2018-Jun-16 09:00N 54°50' W 005°32'5 9.3
2018-Jun-16 08:31N 54°46' W 005°36'510.3
2018-Jun-16 08:00N 54°42' W 005°41'510.5
2018-Jun-16 07:30N 54°40' W 005°50'0 0.0
2018-Jun-15 06:27N 54°40' W 005°50'4 8.9
2018-Jun-15 06:00N 54°42' W 005°44'2 4.3
2018-Jun-15 05:31N 54°43' W 005°41'2 4.4
2018-Jun-15 05:00N 54°45' W 005°40'3 6.8
2018-Jun-15 04:30N 54°49' W 005°39'5 8.8
2018-Jun-15 03:59N 54°53' W 005°40'19 7.4
2018-Jun-15 01:29N 55°10' W 005°55'4 8.2
2018-Jun-15 01:00N 55°13' W 005°58'4 8.6
2018-Jun-15 00:30N 55°17' W 006°02'4 8.8
2018-Jun-15 00:00N 55°21' W 006°05'4 7.3
2018-Jun-14 23:30N 55°25' W 006°03'4 7.5
2018-Jun-14 23:00N 55°28' W 006°01'4 7.6
2018-Jun-14 22:27N 55°32' W 005°59'4 8.0
2018-Jun-14 22:00N 55°36' W 005°56'510.3
2018-Jun-14 21:30N 55°40' W 005°53'0 0.7
2018-Jun-14 21:00N 55°40' W 005°52'0 0.6
2018-Jun-14 20:30N 55°40' W 005°53'1 1.1
2018-Jun-14 20:00N 55°40' W 005°52'2 3.1
2018-Jun-14 19:30N 55°41' W 005°49'1 1.5
2018-Jun-14 19:00N 55°42' W 005°50'0 0.6
2018-Jun-14 18:30N 55°42' W 005°49'2 3.9
2018-Jun-14 18:00N 55°43' W 005°52'0 0.4
2018-Jun-14 17:29N 55°43' W 005°51'1 2.3
2018-Jun-14 16:52N 55°44' W 005°53'2 6.2
2018-Jun-14 16:28N 55°45' W 005°49'4 8.3
2018-Jun-14 16:00N 55°48' W 005°45'2 1.4
2018-Jun-14 14:47N 55°49' W 005°48'310.3
2018-Jun-14 14:30N 55°48' W 005°52'0 0.5
2018-Jun-14 14:00N 55°47' W 005°52'2 3.9
2018-Jun-14 13:27N 55°47' W 005°55'  
2018-Jun-09 12:21N 58°37' W 003°32'0 0.2
2018-Jun-09 11:56N 58°37' W 003°32'5 7.1
2018-Jun-09 11:11N 58°41' W 003°25'212.8
2018-Jun-09 11:00N 58°41' W 003°21'714.8
2018-Jun-09 10:31N 58°43' W 003°07'714.6
2018-Jun-09 10:00N 58°42' W 002°53'611.7
2018-Jun-09 09:30N 58°41' W 002°42'  

Dump ship's entire track history